Pacu — WDH2419 — position and weather

sailwx.info

Track history (hours):
 
Tides and Currents Weather Stations Pressure Air Temp Water Temp Dewpoint Dewpoint Depression Visibility Wind Speed Wind Dir Waves Ship Positions

Pacu

Owner: Florin, Juan M, Woodstock, VT. More information available from US FCC via Universal Licensing System and Coast Guard Vessel Documentation Center.

Last reported at 2018-May-23 17:20 UTC. Time now 2018-Aug-21 04:20 UTC.
Position N 32°13' W 080°47'.
Warning: this ship's position is months out of date.

Length 17 m.

Type: Sailing vessel. MMSI: 367597380.

Date/timePositionNaut miles runAvg speedWind from/ knotsBaromVisibWave heightAir tempDewpointWater temp
2018-May-23 17:20N 32°13' W 080°47'0 1.3
2018-May-23 17:00N 32°13' W 080°47'4 7.0
2018-May-23 16:28N 32°09' W 080°49'2 4.4
2018-May-23 16:00N 32°10' W 080°51'0 0.0
2018-May-22 19:09N 32°10' W 080°52'0 0.0
2018-May-22 19:00N 32°10' W 080°52'3 5.3
2018-May-22 18:30N 32°08' W 080°50'4 8.3
2018-May-22 17:59N 32°03' W 080°50'4 8.2
2018-May-22 17:30N 31°60' W 080°48'4 7.6
2018-May-22 17:00N 31°56' W 080°49'4 7.9
2018-May-22 16:30N 31°53' W 080°51'  
Track history (hours):
 
Tides and Currents Weather Stations Pressure Air Temp Water Temp Dewpoint Dewpoint Depression Visibility Wind Speed Wind Dir Waves Ship Positions

Pacu

Owner: Florin, Juan M, Woodstock, VT. More information available from US FCC via Universal Licensing System and Coast Guard Vessel Documentation Center.

Last reported at 2018-May-23 17:20 UTC. Time now 2018-Aug-21 04:20 UTC.
Position N 32°13' W 080°47'.
Warning: this ship's position is months out of date.

Length 17 m.

Type: Sailing vessel. MMSI: 367597380.

Date/timePositionNaut miles runAvg speedWind from/ knotsBaromVisibWave heightAir tempDewpointWater temp
2018-May-23 17:20N 32°13' W 080°47'0 1.3
2018-May-23 17:00N 32°13' W 080°47'4 7.0
2018-May-23 16:28N 32°09' W 080°49'2 4.4
2018-May-23 16:00N 32°10' W 080°51'0 0.0
2018-May-22 19:09N 32°10' W 080°52'0 0.0
2018-May-22 19:00N 32°10' W 080°52'3 5.3
2018-May-22 18:30N 32°08' W 080°50'4 8.3
2018-May-22 17:59N 32°03' W 080°50'4 8.2
2018-May-22 17:30N 31°60' W 080°48'4 7.6
2018-May-22 17:00N 31°56' W 080°49'4 7.9
2018-May-22 16:30N 31°53' W 080°51'  

Dump ship's entire track history